Time,TemperatureF,DewpointF,PressureIn,WindDirection,WindDirectionDegrees,WindSpeedMPH,WindSpeedGustMPH,Humidity,HourlyPrecipIn,Conditions,Clouds,dailyrainin,SoftwareType,DateUTC
2013-04-08 00:03:00,44.1,36.7,29.80,North,0,0.0,0.0,75,0.08,,OVC036,0.00,VWS V12.08,2013-04-08 07:03:00,
2013-04-08 00:08:00,44.1,37.0,29.80,North,0,0.0,0.0,76,0.08,,OVC036,0.00,VWS V12.08,2013-04-08 07:08:00,
2013-04-08 00:13:00,44.1,37.0,29.80,North,0,0.0,0.0,76,0.08,,OVC036,0.00,VWS V12.08,2013-04-08 07:13:00,
2013-04-08 00:18:00,44.1,37.0,29.80,North,0,0.0,0.0,76,0.08,,OVC036,0.00,VWS V12.08,2013-04-08 07:18:00,
2013-04-08 00:23:00,44.2,37.2,29.80,North,0,0.0,0.0,76,0.12,,OVC036,0.04,VWS V12.08,2013-04-08 07:23:00,
2013-04-08 00:28:00,44.2,37.2,29.80,North,0,0.0,0.0,76,0.12,,OVC036,0.04,VWS V12.08,2013-04-08 07:28:00,
2013-04-08 00:33:00,44.1,37.0,29.80,North,0,0.0,0.0,76,0.12,,OVC036,0.04,VWS V12.08,2013-04-08 07:33:00,
2013-04-08 00:38:00,44.1,37.0,29.80,North,0,0.0,0.0,76,0.04,,OVC036,0.04,VWS V12.08,2013-04-08 07:38:00,
2013-04-08 00:43:00,44.1,37.3,29.80,North,0,0.0,0.0,77,0.04,,OVC036,0.04,VWS V12.08,2013-04-08 07:43:00,
2013-04-08 00:48:00,43.9,37.2,29.80,North,0,0.0,0.0,77,0.04,,OVC036,0.04,VWS V12.08,2013-04-08 07:48:00,
2013-04-08 00:53:00,44.1,37.7,29.80,North,0,0.0,0.0,78,0.04,,OVC036,0.04,VWS V12.08,2013-04-08 07:53:00,
2013-04-08 00:58:00,43.9,37.8,29.80,North,0,0.0,0.0,79,0.04,,OVC036,0.04,VWS V12.08,2013-04-08 07:58:00,
2013-04-08 01:03:00,44.1,38.3,29.80,North,0,0.0,0.0,80,0.04,,OVC036,0.04,VWS V12.08,2013-04-08 08:03:00,
2013-04-08 01:08:00,44.1,38.9,29.80,North,0,0.0,0.0,82,0.04,,OVC036,0.04,VWS V12.08,2013-04-08 08:08:00,
2013-04-08 01:13:00,44.2,39.1,29.80,North,0,0.0,0.0,82,0.04,,OVC036,0.04,VWS V12.08,2013-04-08 08:13:00,
2013-04-08 01:18:00,44.2,39.4,29.80,North,0,0.0,0.0,83,0.04,,OVC036,0.04,VWS V12.08,2013-04-08 08:18:00,
2013-04-08 01:23:00,44.2,39.7,29.80,North,0,0.0,0.0,84,0.04,,OVC036,0.04,VWS V12.08,2013-04-08 08:23:00,
2013-04-08 01:28:00,44.2,40.0,29.80,North,0,0.0,0.0,85,0.04,,OVC036,0.04,VWS V12.08,2013-04-08 08:28:00,
2013-04-08 01:33:00,44.2,40.0,29.80,North,0,0.0,0.0,85,0.04,,OVC036,0.04,VWS V12.08,2013-04-08 08:33:00,
2013-04-08 01:38:00,44.2,40.0,29.80,North,0,0.0,0.0,85,0.00,,OVC036,0.04,VWS V12.08,2013-04-08 08:38:00,
2013-04-08 01:43:00,44.2,40.0,29.83,North,0,0.0,0.0,85,0.00,,OVC036,0.04,VWS V12.08,2013-04-08 08:43:00,
2013-04-08 01:48:00,44.2,40.0,29.83,North,0,0.0,0.0,85,0.00,,OVC036,0.04,VWS V12.08,2013-04-08 08:48:00,
2013-04-08 01:53:00,44.2,40.0,29.83,North,0,0.0,0.0,85,0.00,,OVC036,0.04,VWS V12.08,2013-04-08 08:53:00,
2013-04-08 02:00:00,44.2,40.0,29.83,North,0,0.0,0.0,85,0.00,,OVC036,0.04,VWS V12.08,2013-04-08 09:00:00,
2013-04-08 02:04:00,44.1,39.8,29.83,North,0,0.0,0.0,85,0.00,,OVC036,0.04,VWS V12.08,2013-04-08 09:04:00,
2013-04-08 02:10:00,44.1,39.8,29.83,North,0,0.0,0.0,85,0.00,,OVC036,0.04,VWS V12.08,2013-04-08 09:10:00,
2013-04-08 02:15:00,44.1,39.8,29.83,North,0,0.0,0.0,85,0.00,,OVC036,0.04,VWS V12.08,2013-04-08 09:15:00,
2013-04-08 02:20:00,44.1,39.8,29.83,North,0,0.0,0.0,85,0.00,,OVC036,0.04,VWS V12.08,2013-04-08 09:20:00,
2013-04-08 02:25:00,44.1,39.8,29.83,North,0,0.0,0.0,85,0.00,,OVC036,0.04,VWS V12.08,2013-04-08 09:25:00,
2013-04-08 02:30:00,44.1,39.8,29.83,North,0,0.0,0.0,85,0.00,,OVC036,0.04,VWS V12.08,2013-04-08 09:30:00,
2013-04-08 02:35:00,44.1,39.8,29.83,North,0,0.0,0.0,85,0.00,,OVC036,0.04,VWS V12.08,2013-04-08 09:35:00,
2013-04-08 02:40:00,44.1,39.8,29.83,North,0,0.0,0.0,85,0.00,,OVC036,0.04,VWS V12.08,2013-04-08 09:40:00,
2013-04-08 02:45:00,44.1,39.8,29.83,North,0,0.0,0.0,85,0.00,,OVC036,0.04,VWS V12.08,2013-04-08 09:45:00,
2013-04-08 02:50:00,44.1,39.8,29.83,North,0,0.0,0.0,85,0.00,,OVC036,0.04,VWS V12.08,2013-04-08 09:50:00,
2013-04-08 02:55:00,44.1,39.8,29.83,North,0,0.0,0.0,85,0.00,,OVC036,0.04,VWS V12.08,2013-04-08 09:55:00,
2013-04-08 03:00:00,44.2,40.0,29.83,North,0,0.0,0.0,85,0.00,,OVC036,0.04,VWS V12.08,2013-04-08 10:00:00,
2013-04-08 03:05:00,44.2,40.0,29.83,North,0,0.0,0.0,85,0.00,,OVC036,0.04,VWS V12.08,2013-04-08 10:05:00,
2013-04-08 03:10:00,44.2,40.0,29.83,North,0,0.0,0.0,85,0.00,,OVC036,0.04,VWS V12.08,2013-04-08 10:10:00,
2013-04-08 03:15:00,44.2,40.0,29.83,North,0,0.0,0.0,85,0.00,,OVC036,0.04,VWS V12.08,2013-04-08 10:15:00,
2013-04-08 03:20:00,44.2,40.0,29.83,North,0,0.0,0.0,85,0.00,,OVC036,0.04,VWS V12.08,2013-04-08 10:20:00,
2013-04-08 03:25:00,44.2,40.0,29.83,North,0,0.0,0.0,85,0.00,,OVC036,0.04,VWS V12.08,2013-04-08 10:25:00,
2013-04-08 03:30:00,44.2,40.0,29.83,North,0,0.0,0.0,85,0.00,,OVC036,0.04,VWS V12.08,2013-04-08 10:30:00,
2013-04-08 03:35:00,44.2,40.0,29.83,North,0,0.0,0.0,85,0.00,,OVC036,0.04,VWS V12.08,2013-04-08 10:35:00,
2013-04-08 03:40:00,44.2,40.0,29.85,North,0,0.0,0.0,85,0.00,,OVC036,0.04,VWS V12.08,2013-04-08 10:40:00,
2013-04-08 03:45:00,44.2,40.0,29.85,North,0,0.0,0.0,85,0.00,,OVC036,0.04,VWS V12.08,2013-04-08 10:45:00,
2013-04-08 03:50:00,44.2,40.0,29.85,North,0,0.0,0.0,85,0.00,,OVC036,0.04,VWS V12.08,2013-04-08 10:50:00,
2013-04-08 03:55:00,44.2,40.0,29.85,North,0,0.0,0.0,85,0.00,,OVC036,0.04,VWS V12.08,2013-04-08 10:55:00,
2013-04-08 04:00:00,44.2,40.0,29.85,North,0,0.0,0.0,85,0.00,,OVC036,0.04,VWS V12.08,2013-04-08 11:00:00,
2013-04-08 04:05:00,44.2,40.0,29.85,North,0,0.0,0.0,85,0.00,,OVC036,0.04,VWS V12.08,2013-04-08 11:05:00,
2013-04-08 04:10:00,44.2,40.0,29.85,North,0,0.0,0.0,85,0.00,,OVC036,0.04,VWS V12.08,2013-04-08 11:10:00,
2013-04-08 04:15:00,44.2,40.3,29.85,North,0,0.0,0.0,86,0.04,,OVC036,0.08,VWS V12.08,2013-04-08 11:15:00,
2013-04-08 04:20:00,44.2,40.3,29.85,North,0,0.0,0.0,86,0.04,,OVC036,0.08,VWS V12.08,2013-04-08 11:20:00,
2013-04-08 04:26:00,44.2,40.3,29.85,North,0,0.0,0.0,86,0.04,,OVC036,0.08,VWS V12.08,2013-04-08 11:26:00,
2013-04-08 04:31:00,44.2,40.3,29.85,North,0,0.0,0.0,86,0.04,,OVC036,0.08,VWS V12.08,2013-04-08 11:31:00,
2013-04-08 04:36:00,44.2,40.3,29.85,North,0,0.0,0.0,86,0.04,,OVC036,0.08,VWS V12.08,2013-04-08 11:36:00,
2013-04-08 04:41:00,44.1,39.8,29.85,North,0,0.0,0.0,85,0.04,,OVC036,0.08,VWS V12.08,2013-04-08 11:41:00,
2013-04-08 04:46:00,44.1,39.8,29.85,North,0,0.0,0.0,85,0.04,,OVC036,0.08,VWS V12.08,2013-04-08 11:46:00,
2013-04-08 04:51:00,44.1,39.8,29.85,North,0,0.0,0.0,85,0.04,,OVC036,0.08,VWS V12.08,2013-04-08 11:51:00,
2013-04-08 04:56:00,44.1,39.8,29.88,North,0,0.0,0.0,85,0.04,,OVC036,0.08,VWS V12.08,2013-04-08 11:56:00,
2013-04-08 05:01:00,44.1,39.8,29.88,North,0,0.0,0.0,85,0.04,,OVC036,0.08,VWS V12.08,2013-04-08 12:01:00,
2013-04-08 05:06:00,43.9,39.7,29.88,North,0,0.0,0.0,85,0.04,,OVC036,0.08,VWS V12.08,2013-04-08 12:06:00,
2013-04-08 05:11:00,43.7,39.5,29.88,North,0,0.0,0.0,85,0.04,,OVC036,0.08,VWS V12.08,2013-04-08 12:11:00,
2013-04-08 05:16:00,43.5,39.3,29.88,North,0,0.0,0.0,85,0.04,,OVC036,0.08,VWS V12.08,2013-04-08 12:16:00,
2013-04-08 05:21:00,43.5,39.3,29.88,North,0,0.0,0.0,85,0.00,,OVC036,0.08,VWS V12.08,2013-04-08 12:21:00,
2013-04-08 05:27:00,43.5,39.3,29.88,North,0,0.0,0.0,85,0.00,,OVC036,0.08,VWS V12.08,2013-04-08 12:27:00,
2013-04-08 05:32:00,43.5,39.3,29.88,North,0,0.0,0.0,85,0.00,,OVC036,0.08,VWS V12.08,2013-04-08 12:32:00,
2013-04-08 05:37:00,43.5,39.3,29.88,North,0,0.0,0.0,85,0.00,,OVC036,0.08,VWS V12.08,2013-04-08 12:37:00,
2013-04-08 05:42:00,43.5,39.3,29.88,North,0,0.0,0.0,85,0.00,,OVC036,0.08,VWS V12.08,2013-04-08 12:42:00,
2013-04-08 05:47:00,43.5,39.3,29.88,North,0,0.0,0.0,85,0.00,,OVC036,0.08,VWS V12.08,2013-04-08 12:47:00,
2013-04-08 05:52:00,43.5,39.3,29.88,North,0,0.0,0.0,85,0.00,,OVC036,0.08,VWS V12.08,2013-04-08 12:52:00,
2013-04-08 05:57:00,43.5,39.3,29.88,North,0,0.0,0.0,85,0.00,,OVC036,0.08,VWS V12.08,2013-04-08 12:57:00,
2013-04-08 06:02:00,43.5,39.3,29.88,North,0,0.0,0.0,85,0.00,,OVC036,0.08,VWS V12.08,2013-04-08 13:02:00,
2013-04-08 06:07:00,43.5,39.3,29.88,North,0,0.0,0.0,85,0.00,,OVC036,0.08,VWS V12.08,2013-04-08 13:07:00,
2013-04-08 06:12:00,43.5,39.6,29.91,North,0,0.0,0.0,86,0.00,,OVC036,0.08,VWS V12.08,2013-04-08 13:12:00,
2013-04-08 06:17:00,43.7,39.5,29.91,North,0,0.0,0.0,85,0.00,,OVC036,0.08,VWS V12.08,2013-04-08 13:17:00,
2013-04-08 06:22:00,43.7,39.5,29.91,North,0,0.0,0.0,85,0.00,,OVC036,0.08,VWS V12.08,2013-04-08 13:22:00,
2013-04-08 06:27:00,43.5,39.3,29.91,North,0,0.0,0.0,85,0.00,,OVC036,0.08,VWS V12.08,2013-04-08 13:27:00,
2013-04-08 06:32:00,43.7,39.5,29.91,North,0,0.0,0.0,85,0.00,,OVC036,0.08,VWS V12.08,2013-04-08 13:32:00,
2013-04-08 06:37:00,43.7,39.5,29.91,North,0,0.0,0.0,85,0.00,,OVC036,0.08,VWS V12.08,2013-04-08 13:37:00,
2013-04-08 06:42:00,43.7,39.5,29.91,North,0,0.0,0.0,85,0.00,,OVC036,0.08,VWS V12.08,2013-04-08 13:42:00,
2013-04-08 06:47:00,43.7,39.5,29.91,North,0,0.0,0.0,85,0.00,,OVC036,0.08,VWS V12.08,2013-04-08 13:47:00,
2013-04-08 06:52:00,43.7,39.5,29.91,North,0,0.0,0.0,85,0.00,,OVC036,0.08,VWS V12.08,2013-04-08 13:52:00,
2013-04-08 06:58:00,43.7,39.5,29.91,North,0,0.0,0.0,85,0.00,,OVC036,0.08,VWS V12.08,2013-04-08 13:58:00,
2013-04-08 07:03:00,43.9,39.7,29.91,North,0,0.0,0.0,85,0.00,,OVC036,0.08,VWS V12.08,2013-04-08 14:03:00,
2013-04-08 07:08:00,43.7,39.5,29.91,North,0,0.0,0.0,85,0.00,,OVC036,0.08,VWS V12.08,2013-04-08 14:08:00,
2013-04-08 07:13:00,43.9,39.4,29.94,North,0,0.0,0.0,84,0.00,,OVC036,0.08,VWS V12.08,2013-04-08 14:13:00,
2013-04-08 07:18:00,43.7,38.9,29.94,North,0,0.0,0.0,83,0.00,,OVC036,0.08,VWS V12.08,2013-04-08 14:18:00,
2013-04-08 07:23:00,43.7,38.6,29.94,North,0,0.0,0.0,82,0.00,,OVC036,0.08,VWS V12.08,2013-04-08 14:23:00,
2013-04-08 07:28:00,43.7,38.3,29.94,North,0,0.0,0.0,81,0.00,,OVC036,0.08,VWS V12.08,2013-04-08 14:28:00,
2013-04-08 07:33:00,43.7,38.6,29.94,North,0,0.0,0.0,82,0.00,,OVC036,0.08,VWS V12.08,2013-04-08 14:33:00,
2013-04-08 07:38:00,43.7,38.6,29.94,North,0,0.0,0.0,82,0.00,,OVC036,0.08,VWS V12.08,2013-04-08 14:38:00,
2013-04-08 07:43:00,43.5,38.1,29.94,North,0,0.0,0.0,81,0.00,,OVC036,0.08,VWS V12.08,2013-04-08 14:43:00,
2013-04-08 07:48:00,43.5,38.1,29.94,North,0,0.0,0.0,81,0.00,,OVC036,0.08,VWS V12.08,2013-04-08 14:48:00,
2013-04-08 07:53:00,43.5,37.8,29.94,North,0,0.0,0.0,80,0.00,,OVC036,0.08,VWS V12.08,2013-04-08 14:53:00,
2013-04-08 07:58:00,43.3,37.3,29.94,North,0,0.0,0.0,79,0.00,,OVC036,0.08,VWS V12.08,2013-04-08 14:58:00,
2013-04-08 08:03:00,43.3,37.0,29.94,North,0,0.0,0.0,78,0.00,,OVC036,0.08,VWS V12.08,2013-04-08 15:03:00,
2013-04-08 08:08:00,43.3,36.6,29.94,North,0,0.0,0.0,77,0.00,,OVC036,0.08,VWS V12.08,2013-04-08 15:08:00,
2013-04-08 08:13:00,43.2,36.5,29.94,North,0,0.0,0.0,77,0.00,,OVC036,0.08,VWS V12.08,2013-04-08 15:13:00,
2013-04-08 08:18:00,43.3,36.6,29.94,North,0,0.0,0.0,77,0.00,,OVC036,0.08,VWS V12.08,2013-04-08 15:18:00,
2013-04-08 08:23:00,43.3,36.0,29.94,North,0,0.0,0.0,75,0.00,,OVC036,0.08,VWS V12.08,2013-04-08 15:23:00,
2013-04-08 08:28:00,43.5,36.5,29.94,North,0,0.0,0.0,76,0.00,,OVC036,0.08,VWS V12.08,2013-04-08 15:28:00,
2013-04-08 08:33:00,43.5,36.5,29.94,North,0,0.0,0.0,76,0.00,,OVC036,0.08,VWS V12.08,2013-04-08 15:33:00,
2013-04-08 08:38:00,43.7,37.0,29.94,North,0,0.0,0.0,77,0.00,,OVC036,0.08,VWS V12.08,2013-04-08 15:38:00,
2013-04-08 08:43:00,43.7,36.6,29.97,North,0,0.0,0.0,76,0.00,,OVC036,0.08,VWS V12.08,2013-04-08 15:43:00,
2013-04-08 08:48:00,43.7,37.0,29.97,North,0,0.0,0.0,77,0.00,,OVC036,0.08,VWS V12.08,2013-04-08 15:48:00,
2013-04-08 08:53:00,43.5,36.1,29.97,North,0,0.0,0.0,75,0.00,,OVC036,0.08,VWS V12.08,2013-04-08 15:53:00,
2013-04-08 08:58:00,43.3,36.0,29.97,North,0,0.0,0.0,75,0.00,,OVC036,0.08,VWS V12.08,2013-04-08 15:58:00,
2013-04-08 09:03:00,43.7,36.0,29.97,North,0,0.0,0.0,74,0.00,,OVC036,0.08,VWS V12.08,2013-04-08 16:03:00,
2013-04-08 09:08:00,43.9,36.1,29.97,North,0,0.0,0.0,74,0.00,,OVC036,0.08,VWS V12.08,2013-04-08 16:08:00,
2013-04-08 09:13:00,43.9,36.1,29.97,North,0,0.0,0.0,74,0.00,,OVC036,0.08,VWS V12.08,2013-04-08 16:13:00,
2013-04-08 09:18:00,43.7,34.9,29.97,North,0,0.0,0.0,71,0.00,,OVC036,0.08,VWS V12.08,2013-04-08 16:18:00,
2013-04-08 09:23:00,43.9,35.5,29.97,North,0,0.0,0.0,72,0.00,,OVC036,0.08,VWS V12.08,2013-04-08 16:23:00,
2013-04-08 09:28:00,43.9,36.1,29.97,North,0,0.0,0.0,74,0.00,,OVC036,0.08,VWS V12.08,2013-04-08 16:28:00,
2013-04-08 09:33:00,43.9,37.2,29.97,North,0,0.0,0.0,77,0.00,,OVC036,0.08,VWS V12.08,2013-04-08 16:33:00,
2013-04-08 09:38:00,43.7,37.0,29.97,North,0,0.0,0.0,77,0.00,,OVC036,0.08,VWS V12.08,2013-04-08 16:38:00,
2013-04-08 09:43:00,43.3,36.3,29.97,North,0,0.0,0.0,76,0.00,,OVC036,0.08,VWS V12.08,2013-04-08 16:43:00,
2013-04-08 09:48:00,43.7,37.0,29.97,North,0,0.0,0.0,77,0.00,,OVC036,0.08,VWS V12.08,2013-04-08 16:48:00,
2013-04-08 09:54:00,43.9,36.5,29.97,North,0,0.0,0.0,75,0.00,,OVC036,0.08,VWS V12.08,2013-04-08 16:54:00,
2013-04-08 09:59:00,44.1,36.7,29.97,North,0,0.0,0.0,75,0.00,,OVC036,0.08,VWS V12.08,2013-04-08 16:59:00,
2013-04-08 10:04:00,44.4,37.0,29.97,North,0,0.0,0.0,75,0.00,,OVC036,0.08,VWS V12.08,2013-04-08 17:04:00,
2013-04-08 10:09:00,44.2,36.2,29.97,North,0,0.0,0.0,73,0.00,,OVC036,0.08,VWS V12.08,2013-04-08 17:09:00,
2013-04-08 10:14:00,44.1,34.9,30.00,North,0,0.0,0.0,70,0.00,,OVC036,0.08,VWS V12.08,2013-04-08 17:14:00,
2013-04-08 10:19:00,44.4,34.5,30.00,North,0,0.0,0.0,68,0.00,,OVC036,0.08,VWS V12.08,2013-04-08 17:19:00,
2013-04-08 10:24:00,44.4,33.8,30.00,North,0,0.0,0.0,66,0.00,,OVC036,0.08,VWS V12.08,2013-04-08 17:24:00,
2013-04-08 10:29:00,44.8,34.1,30.00,North,0,0.0,0.0,66,0.00,,OVC036,0.08,VWS V12.08,2013-04-08 17:29:00,
2013-04-08 10:34:00,45.5,34.0,30.00,North,0,0.0,0.0,64,0.00,,OVC036,0.08,VWS V12.08,2013-04-08 17:34:00,
2013-04-08 10:39:00,45.3,31.4,30.00,North,0,0.0,0.0,58,0.00,,OVC036,0.08,VWS V12.08,2013-04-08 17:39:00,
2013-04-08 10:45:00,45.5,32.0,30.00,North,0,0.0,0.0,59,0.00,,OVC036,0.08,VWS V12.08,2013-04-08 17:45:00,
2013-04-08 10:50:00,46.0,32.5,30.00,North,0,0.0,0.0,59,0.00,,OVC036,0.08,VWS V12.08,2013-04-08 17:50:00,
2013-04-08 10:55:00,46.2,32.3,30.00,North,0,0.0,0.0,58,0.00,,OVC036,0.08,VWS V12.08,2013-04-08 17:55:00,
2013-04-08 11:00:00,46.9,33.4,30.00,North,0,0.0,0.0,59,0.00,,OVC036,0.08,VWS V12.08,2013-04-08 18:00:00,
2013-04-08 11:05:00,47.5,32.6,30.00,North,0,0.0,0.0,56,0.00,,OVC036,0.08,VWS V12.08,2013-04-08 18:05:00,
2013-04-08 11:10:00,48.0,31.7,30.00,North,0,0.0,0.0,53,0.00,,OVC036,0.08,VWS V12.08,2013-04-08 18:10:00,
2013-04-08 11:15:00,48.2,30.9,30.00,North,0,0.0,0.0,51,0.00,,OVC036,0.08,VWS V12.08,2013-04-08 18:15:00,
2013-04-08 11:20:00,47.8,30.1,30.00,North,0,0.0,0.0,50,0.00,,OVC036,0.08,VWS V12.08,2013-04-08 18:20:00,
2013-04-08 11:25:00,48.4,30.1,30.00,North,0,0.0,0.0,49,0.00,,OVC036,0.08,VWS V12.08,2013-04-08 18:25:00,
2013-04-08 11:30:00,49.3,31.0,30.00,North,0,0.0,0.0,49,0.00,,OVC036,0.08,VWS V12.08,2013-04-08 18:30:00,
2013-04-08 11:35:00,50.0,30.6,30.00,North,0,0.0,0.0,47,0.00,,OVC036,0.08,VWS V12.08,2013-04-08 18:35:00,
2013-04-08 11:40:00,50.4,29.3,30.00,North,0,0.0,0.0,44,0.00,,OVC036,0.08,VWS V12.08,2013-04-08 18:40:00,
2013-04-08 11:45:00,51.4,29.7,30.00,North,0,0.0,0.0,43,0.00,,OVC036,0.08,VWS V12.08,2013-04-08 18:45:00,
2013-04-08 11:50:00,50.9,28.6,30.00,North,0,0.0,0.0,42,0.00,,OVC036,0.08,VWS V12.08,2013-04-08 18:50:00,
2013-04-08 11:55:00,50.5,29.5,30.00,North,0,0.0,0.0,44,0.00,,OVC036,0.08,VWS V12.08,2013-04-08 18:55:00,
2013-04-08 12:00:00,50.4,28.2,30.00,North,0,0.0,0.0,42,0.00,,OVC036,0.08,VWS V12.08,2013-04-08 19:00:00,
2013-04-08 12:05:00,50.7,30.2,30.00,North,0,0.0,0.0,45,0.00,,OVC036,0.08,VWS V12.08,2013-04-08 19:05:00,
2013-04-08 12:10:00,51.3,30.7,30.00,North,0,0.0,0.0,45,0.00,,OVC036,0.08,VWS V12.08,2013-04-08 19:10:00,
2013-04-08 12:15:00,51.3,30.7,30.00,North,0,0.0,0.0,45,0.00,,OVC036,0.08,VWS V12.08,2013-04-08 19:15:00,
2013-04-08 12:21:00,50.5,28.3,30.00,North,0,0.0,0.0,42,0.00,,OVC036,0.08,VWS V12.08,2013-04-08 19:21:00,
2013-04-08 12:26:00,50.9,28.6,30.00,North,0,0.0,0.0,42,0.00,,OVC036,0.08,VWS V12.08,2013-04-08 19:26:00,
2013-04-08 12:31:00,51.8,28.9,30.00,North,0,0.0,0.0,41,0.00,,OVC036,0.08,VWS V12.08,2013-04-08 19:31:00,
2013-04-08 12:37:00,52.2,28.6,30.00,North,0,0.0,0.0,40,0.00,,OVC036,0.08,VWS V12.08,2013-04-08 19:37:00,
2013-04-08 12:42:00,51.8,27.6,30.03,North,0,0.0,0.0,39,0.00,,OVC036,0.08,VWS V12.08,2013-04-08 19:42:00,
2013-04-08 12:47:00,52.3,27.5,30.03,North,0,0.0,0.0,38,0.00,,OVC036,0.08,VWS V12.08,2013-04-08 19:47:00,
2013-04-08 12:52:00,52.3,26.9,30.03,North,0,0.0,0.0,37,0.00,,OVC036,0.08,VWS V12.08,2013-04-08 19:52:00,
2013-04-08 12:57:00,51.6,26.9,30.03,North,0,0.0,0.0,38,0.00,,OVC036,0.08,VWS V12.08,2013-04-08 19:57:00,
2013-04-08 13:02:00,51.8,27.0,30.03,North,0,0.0,0.0,38,0.00,,OVC036,0.08,VWS V12.08,2013-04-08 20:02:00,
2013-04-08 13:07:00,52.2,26.7,30.03,North,0,0.0,0.0,37,0.00,,OVC036,0.08,VWS V12.08,2013-04-08 20:07:00,
2013-04-08 13:12:00,51.6,27.5,30.03,North,0,0.0,0.0,39,0.00,,OVC036,0.08,VWS V12.08,2013-04-08 20:12:00,
2013-04-08 13:17:00,52.2,27.3,30.03,North,0,0.0,0.0,38,0.00,,OVC036,0.08,VWS V12.08,2013-04-08 20:17:00,
2013-04-08 13:22:00,52.2,26.7,30.03,North,0,0.0,0.0,37,0.00,,OVC036,0.08,VWS V12.08,2013-04-08 20:22:00,
2013-04-08 13:27:00,52.3,26.9,30.03,North,0,0.0,0.0,37,0.00,,OVC036,0.08,VWS V12.08,2013-04-08 20:27:00,
2013-04-08 13:32:00,52.5,26.4,30.03,North,0,0.0,0.0,36,0.00,,OVC036,0.08,VWS V12.08,2013-04-08 20:32:00,
2013-04-08 13:37:00,52.5,27.0,30.03,North,0,0.0,0.0,37,0.00,,OVC036,0.08,VWS V12.08,2013-04-08 20:37:00,
2013-04-08 13:42:00,52.7,27.2,30.03,North,0,0.0,0.0,37,0.00,,OVC036,0.08,VWS V12.08,2013-04-08 20:42:00,
2013-04-08 13:47:00,52.2,26.0,30.03,North,0,0.0,0.0,36,0.00,,OVC036,0.08,VWS V12.08,2013-04-08 20:47:00,
2013-04-08 13:52:00,52.2,26.0,30.03,North,0,0.0,0.0,36,0.00,,OVC036,0.08,VWS V12.08,2013-04-08 20:52:00,
2013-04-08 13:57:00,52.3,26.9,30.03,North,0,0.0,0.0,37,0.00,,OVC036,0.08,VWS V12.08,2013-04-08 20:57:00,
2013-04-08 14:02:00,52.7,26.5,30.03,North,0,0.0,0.0,36,0.00,,OVC036,0.08,VWS V12.08,2013-04-08 21:02:00,
2013-04-08 14:07:00,52.9,26.7,30.03,North,0,0.0,0.0,36,0.00,,OVC036,0.08,VWS V12.08,2013-04-08 21:07:00,
2013-04-08 14:12:00,52.9,26.0,30.03,North,0,0.0,0.0,35,0.00,,OVC036,0.08,VWS V12.08,2013-04-08 21:12:00,
2013-04-08 14:17:00,52.9,26.7,30.03,North,0,0.0,0.0,36,0.00,,OVC036,0.08,VWS V12.08,2013-04-08 21:17:00,
2013-04-08 14:22:00,53.1,26.1,30.03,North,0,0.0,0.0,35,0.00,,OVC036,0.08,VWS V12.08,2013-04-08 21:22:00,
2013-04-08 14:27:00,52.9,23.9,30.03,North,0,0.0,0.0,32,0.00,,OVC036,0.08,VWS V12.08,2013-04-08 21:27:00,
2013-04-08 14:32:00,53.4,27.1,30.03,North,0,0.0,0.0,36,0.00,,OVC036,0.08,VWS V12.08,2013-04-08 21:32:00,
2013-04-08 14:37:00,53.4,25.8,30.03,North,0,0.0,0.0,34,0.00,,OVC036,0.08,VWS V12.08,2013-04-08 21:37:00,
2013-04-08 14:42:00,53.8,26.8,30.03,North,0,0.0,0.0,35,0.00,,OVC036,0.08,VWS V12.08,2013-04-08 21:42:00,
2013-04-08 14:47:00,54.5,26.0,30.03,North,0,0.0,0.0,33,0.00,,OVC036,0.08,VWS V12.08,2013-04-08 21:47:00,
2013-04-08 14:52:00,54.5,27.4,30.03,North,0,0.0,0.0,35,0.00,,OVC036,0.08,VWS V12.08,2013-04-08 21:52:00,
2013-04-08 14:57:00,54.3,27.3,30.03,North,0,0.0,0.0,35,0.00,,OVC036,0.08,VWS V12.08,2013-04-08 21:57:00,
2013-04-08 15:03:00,54.0,27.0,30.03,North,0,0.0,0.0,35,0.00,,OVC036,0.08,VWS V12.08,2013-04-08 22:03:00,
2013-04-08 15:08:00,53.4,25.1,30.03,North,0,0.0,0.0,33,0.00,,OVC036,0.08,VWS V12.08,2013-04-08 22:08:00,
2013-04-08 15:13:00,53.8,25.4,30.03,North,0,0.0,0.0,33,0.00,,OVC036,0.08,VWS V12.08,2013-04-08 22:13:00,
2013-04-08 15:18:00,53.8,26.1,30.03,North,0,0.0,0.0,34,0.00,,OVC036,0.08,VWS V12.08,2013-04-08 22:18:00,
2013-04-08 15:23:00,53.8,26.1,30.03,North,0,0.0,0.0,34,0.00,,OVC036,0.08,VWS V12.08,2013-04-08 22:23:00,
2013-04-08 15:28:00,53.8,26.8,30.03,North,0,0.0,0.0,35,0.00,,OVC036,0.08,VWS V12.08,2013-04-08 22:28:00,
2013-04-08 15:33:00,53.8,26.1,30.03,North,0,0.0,0.0,34,0.00,,OVC036,0.08,VWS V12.08,2013-04-08 22:33:00,
2013-04-08 15:38:00,53.2,24.2,30.03,North,0,0.0,0.0,32,0.00,,OVC036,0.08,VWS V12.08,2013-04-08 22:38:00,
2013-04-08 15:43:00,53.8,25.4,30.03,North,0,0.0,0.0,33,0.00,,OVC036,0.08,VWS V12.08,2013-04-08 22:43:00,
2013-04-08 15:48:00,53.6,24.5,30.03,North,0,0.0,0.0,32,0.00,,OVC036,0.08,VWS V12.08,2013-04-08 22:48:00,
2013-04-08 15:53:00,53.6,23.7,30.03,North,0,0.0,0.0,31,0.00,,OVC036,0.08,VWS V12.08,2013-04-08 22:53:00,
2013-04-08 15:58:00,54.0,24.0,30.03,North,0,0.0,0.0,31,0.00,,OVC036,0.08,VWS V12.08,2013-04-08 22:58:00,
2013-04-08 16:03:00,54.1,24.2,30.03,North,0,0.0,0.0,31,0.00,,OVC036,0.08,VWS V12.08,2013-04-08 23:03:00,
2013-04-08 16:08:00,53.8,26.1,30.03,North,0,0.0,0.0,34,0.00,,OVC036,0.08,VWS V12.08,2013-04-08 23:08:00,
2013-04-08 16:13:00,54.0,27.0,30.03,North,0,0.0,0.0,35,0.00,,OVC036,0.08,VWS V12.08,2013-04-08 23:13:00,
2013-04-08 16:18:00,54.1,27.8,30.03,North,0,0.0,0.0,36,0.00,,OVC036,0.08,VWS V12.08,2013-04-08 23:18:00,
2013-04-08 16:23:00,53.6,27.3,30.03,North,0,0.0,0.0,36,0.00,,OVC036,0.08,VWS V12.08,2013-04-08 23:23:00,
2013-04-08 16:29:00,53.8,27.5,30.03,North,0,0.0,0.0,36,0.00,,OVC036,0.08,VWS V12.08,2013-04-08 23:29:00,
2013-04-08 16:34:00,53.6,28.0,30.03,North,0,0.0,0.0,37,0.00,,OVC036,0.08,VWS V12.08,2013-04-08 23:34:00,
2013-04-08 16:39:00,53.6,28.6,30.03,North,0,0.0,0.0,38,0.00,,OVC036,0.08,VWS V12.08,2013-04-08 23:39:00,
2013-04-08 16:44:00,53.6,28.6,30.03,North,0,0.0,0.0,38,0.00,,OVC036,0.08,VWS V12.08,2013-04-08 23:44:00,
2013-04-08 16:49:00,54.0,28.3,30.03,North,0,0.0,0.0,37,0.00,,OVC036,0.08,VWS V12.08,2013-04-08 23:49:00,
2013-04-08 16:54:00,54.1,28.5,30.03,North,0,0.0,0.0,37,0.00,,OVC036,0.08,VWS V12.08,2013-04-08 23:54:00,
2013-04-08 16:59:00,54.7,28.9,30.03,North,0,0.0,0.0,37,0.00,,OVC036,0.08,VWS V12.08,2013-04-08 23:59:00,
2013-04-08 17:04:00,54.9,28.4,30.03,North,0,0.0,0.0,36,0.00,,OVC036,0.08,VWS V12.08,2013-04-09 00:04:00,
2013-04-08 17:09:00,55.0,28.6,30.03,North,0,0.0,0.0,36,0.00,,OVC036,0.08,VWS V12.08,2013-04-09 00:09:00,
2013-04-08 17:14:00,54.7,28.3,30.03,North,0,0.0,0.0,36,0.00,,OVC036,0.08,VWS V12.08,2013-04-09 00:14:00,
2013-04-08 17:19:00,55.0,27.9,30.03,North,0,0.0,0.0,35,0.00,,OVC036,0.08,VWS V12.08,2013-04-09 00:19:00,
2013-04-08 17:24:00,54.5,27.4,30.03,North,0,0.0,0.0,35,0.00,,OVC036,0.08,VWS V12.08,2013-04-09 00:24:00,
2013-04-08 17:29:00,54.3,27.3,30.06,North,0,0.0,0.0,35,0.00,,OVC036,0.08,VWS V12.08,2013-04-09 00:29:00,
2013-04-08 17:34:00,54.5,27.4,30.06,North,0,0.0,0.0,35,0.00,,OVC036,0.08,VWS V12.08,2013-04-09 00:34:00,
2013-04-08 17:39:00,54.7,28.3,30.06,North,0,0.0,0.0,36,0.00,,OVC036,0.08,VWS V12.08,2013-04-09 00:39:00,
2013-04-08 17:44:00,54.7,28.3,30.06,North,0,0.0,0.0,36,0.00,,OVC036,0.08,VWS V12.08,2013-04-09 00:44:00,
2013-04-08 17:49:00,54.3,28.0,30.06,North,0,0.0,0.0,36,0.00,,OVC036,0.08,VWS V12.08,2013-04-09 00:49:00,
2013-04-08 17:54:00,54.5,28.8,30.06,North,0,0.0,0.0,37,0.00,,OVC036,0.08,VWS V12.08,2013-04-09 00:54:00,
2013-04-08 17:59:00,54.5,28.1,30.06,North,0,0.0,0.0,36,0.00,,OVC036,0.08,VWS V12.08,2013-04-09 00:59:00,
2013-04-08 18:04:00,54.5,28.1,30.06,North,0,0.0,0.0,36,0.00,,OVC036,0.08,VWS V12.08,2013-04-09 01:04:00,
2013-04-08 18:10:00,54.5,28.1,30.06,North,0,0.0,0.0,36,0.00,,OVC036,0.08,VWS V12.08,2013-04-09 01:10:00,
2013-04-08 18:15:00,54.3,28.6,30.06,North,0,0.0,0.0,37,0.00,,OVC036,0.08,VWS V12.08,2013-04-09 01:15:00,
2013-04-08 18:20:00,54.1,28.5,30.06,North,0,0.0,0.0,37,0.00,,OVC036,0.08,VWS V12.08,2013-04-09 01:20:00,
2013-04-08 18:25:00,54.1,28.5,30.06,North,0,0.0,0.0,37,0.00,,OVC036,0.08,VWS V12.08,2013-04-09 01:25:00,
2013-04-08 18:30:00,54.0,29.0,30.06,North,0,0.0,0.0,38,0.00,,OVC036,0.08,VWS V12.08,2013-04-09 01:30:00,
2013-04-08 18:35:00,53.8,28.8,30.06,North,0,0.0,0.0,38,0.00,,OVC036,0.08,VWS V12.08,2013-04-09 01:35:00,
2013-04-08 18:40:00,53.6,29.3,30.09,North,0,0.0,0.0,39,0.00,,OVC036,0.08,VWS V12.08,2013-04-09 01:40:00,
2013-04-08 18:45:00,53.6,29.9,30.09,North,0,0.0,0.0,40,0.00,,OVC036,0.08,VWS V12.08,2013-04-09 01:45:00,
2013-04-08 18:50:00,53.4,30.3,30.09,North,0,0.0,0.0,41,0.00,,OVC036,0.08,VWS V12.08,2013-04-09 01:50:00,
2013-04-08 18:55:00,53.4,30.3,30.09,North,0,0.0,0.0,41,0.00,,OVC036,0.08,VWS V12.08,2013-04-09 01:55:00,
2013-04-08 19:00:00,53.4,30.3,30.09,North,0,0.0,0.0,41,0.00,,OVC036,0.08,VWS V12.08,2013-04-09 02:00:00,
2013-04-08 19:05:00,53.4,30.9,30.09,North,0,0.0,0.0,42,0.00,,OVC036,0.08,VWS V12.08,2013-04-09 02:05:00,
2013-04-08 19:10:00,53.2,30.8,30.09,North,0,0.0,0.0,42,0.00,,OVC036,0.08,VWS V12.08,2013-04-09 02:10:00,
2013-04-08 19:15:00,53.2,30.8,30.09,North,0,0.0,0.0,42,0.00,,OVC036,0.08,VWS V12.08,2013-04-09 02:15:00,
2013-04-08 19:20:00,53.2,31.3,30.09,North,0,0.0,0.0,43,0.00,,OVC036,0.08,VWS V12.08,2013-04-09 02:20:00,
2013-04-08 19:25:00,52.9,31.0,30.09,North,0,0.0,0.0,43,0.00,,OVC036,0.08,VWS V12.08,2013-04-09 02:25:00,
2013-04-08 19:31:00,52.7,31.4,30.09,North,0,0.0,0.0,44,0.00,,OVC036,0.08,VWS V12.08,2013-04-09 02:31:00,
2013-04-08 19:36:00,52.3,31.6,30.09,North,0,0.0,0.0,45,0.00,,OVC036,0.08,VWS V12.08,2013-04-09 02:36:00,
2013-04-08 19:41:00,52.0,30.8,30.09,North,0,0.0,0.0,44,0.00,,OVC036,0.08,VWS V12.08,2013-04-09 02:41:00,
2013-04-08 19:46:00,51.8,30.6,30.09,North,0,0.0,0.0,44,0.00,,OVC036,0.08,VWS V12.08,2013-04-09 02:46:00,
2013-04-08 19:51:00,51.6,31.5,30.09,North,0,0.0,0.0,46,0.00,,OVC036,0.08,VWS V12.08,2013-04-09 02:51:00,
2013-04-08 19:56:00,51.4,31.4,30.09,North,0,0.0,0.0,46,0.00,,OVC036,0.08,VWS V12.08,2013-04-09 02:56:00,
2013-04-08 20:01:00,51.3,31.2,30.09,North,0,0.0,0.0,46,0.00,,OVC036,0.08,VWS V12.08,2013-04-09 03:01:00,
2013-04-08 20:06:00,51.1,31.0,30.09,North,0,0.0,0.0,46,0.00,,OVC036,0.08,VWS V12.08,2013-04-09 03:06:00,
2013-04-08 20:11:00,50.9,31.4,30.09,North,0,0.0,0.0,47,0.00,,OVC036,0.08,VWS V12.08,2013-04-09 03:11:00,
2013-04-08 20:17:00,50.5,31.1,30.09,North,0,0.0,0.0,47,0.00,,OVC036,0.08,VWS V12.08,2013-04-09 03:17:00,
2013-04-08 20:21:00,50.2,30.8,30.09,North,0,0.0,0.0,47,0.00,,OVC036,0.08,VWS V12.08,2013-04-09 03:21:00,
2013-04-08 20:27:00,50.0,31.1,30.09,North,0,0.0,0.0,48,0.00,,OVC036,0.08,VWS V12.08,2013-04-09 03:27:00,
2013-04-08 20:32:00,49.8,30.9,30.09,North,0,0.0,0.0,48,0.00,,OVC036,0.08,VWS V12.08,2013-04-09 03:32:00,
2013-04-08 20:37:00,49.6,31.3,30.09,North,0,0.0,0.0,49,0.00,,OVC036,0.08,VWS V12.08,2013-04-09 03:37:00,
2013-04-08 20:42:00,49.3,31.0,30.09,North,0,0.0,0.0,49,0.00,,OVC036,0.08,VWS V12.08,2013-04-09 03:42:00,
2013-04-08 20:47:00,48.9,31.1,30.09,North,0,0.0,0.0,50,0.00,,OVC036,0.08,VWS V12.08,2013-04-09 03:47:00,
2013-04-08 20:52:00,48.7,31.0,30.09,North,0,0.0,0.0,50,0.00,,OVC036,0.08,VWS V12.08,2013-04-09 03:52:00,
2013-04-08 20:57:00,48.4,30.6,30.12,North,0,0.0,0.0,50,0.00,,OVC036,0.08,VWS V12.08,2013-04-09 03:57:00,
2013-04-08 21:00:00,48.4,30.6,30.12,North,0,0.0,0.0,50,0.00,,OVC036,0.08,VWS V12.08,2013-04-09 04:00:00,
2013-04-08 21:05:00,48.0,31.7,30.12,North,0,0.0,0.0,53,0.00,,OVC036,0.08,VWS V12.08,2013-04-09 04:05:00,
2013-04-08 21:10:00,48.0,32.2,30.12,North,0,0.0,0.0,54,0.00,,OVC036,0.08,VWS V12.08,2013-04-09 04:10:00,
2013-04-08 21:15:00,47.8,32.5,30.12,North,0,0.0,0.0,55,0.00,,OVC036,0.08,VWS V12.08,2013-04-09 04:15:00,
2013-04-08 21:20:00,47.8,32.5,30.12,North,0,0.0,0.0,55,0.00,,OVC036,0.08,VWS V12.08,2013-04-09 04:20:00,
2013-04-08 21:25:00,47.7,32.8,30.12,North,0,0.0,0.0,56,0.00,,OVC036,0.08,VWS V12.08,2013-04-09 04:25:00,
2013-04-08 21:30:00,47.5,33.5,30.12,North,0,0.0,0.0,58,0.00,,OVC036,0.08,VWS V12.08,2013-04-09 04:30:00,
2013-04-08 21:35:00,47.5,33.5,30.12,North,0,0.0,0.0,58,0.00,,OVC036,0.08,VWS V12.08,2013-04-09 04:35:00,
2013-04-08 21:40:00,47.3,33.7,30.12,North,0,0.0,0.0,59,0.00,,OVC036,0.08,VWS V12.08,2013-04-09 04:40:00,
2013-04-08 21:45:00,47.1,33.5,30.12,North,0,0.0,0.0,59,0.00,,OVC036,0.08,VWS V12.08,2013-04-09 04:45:00,
2013-04-08 21:50:00,46.9,34.2,30.12,North,0,0.0,0.0,61,0.00,,OVC036,0.08,VWS V12.08,2013-04-09 04:50:00,
2013-04-08 21:55:00,46.8,34.4,30.12,North,0,0.0,0.0,62,0.00,,OVC036,0.08,VWS V12.08,2013-04-09 04:55:00,
2013-04-08 22:01:00,46.6,34.3,30.12,North,0,0.0,0.0,62,0.00,,OVC036,0.08,VWS V12.08,2013-04-09 05:01:00,
2013-04-08 22:06:00,46.4,34.1,30.12,North,0,0.0,0.0,62,0.00,,OVC036,0.08,VWS V12.08,2013-04-09 05:06:00,
2013-04-08 22:11:00,46.0,34.2,30.12,North,0,0.0,0.0,63,0.00,,OVC036,0.08,VWS V12.08,2013-04-09 05:11:00,
2013-04-08 22:16:00,45.9,34.0,30.12,North,0,0.0,0.0,63,0.00,,OVC036,0.08,VWS V12.08,2013-04-09 05:16:00,
2013-04-08 22:21:00,45.5,33.7,30.12,North,0,0.0,0.0,63,0.00,,OVC036,0.08,VWS V12.08,2013-04-09 05:21:00,
2013-04-08 22:26:00,45.3,33.5,30.12,North,0,0.0,0.0,63,0.00,,OVC036,0.08,VWS V12.08,2013-04-09 05:26:00,
2013-04-08 22:31:00,45.1,33.3,30.12,North,0,0.0,0.0,63,0.00,,OVC036,0.08,VWS V12.08,2013-04-09 05:31:00,
2013-04-08 22:36:00,45.0,33.5,30.12,North,0,0.0,0.0,64,0.00,,OVC036,0.08,VWS V12.08,2013-04-09 05:36:00,
2013-04-08 22:41:00,44.8,33.0,30.15,North,0,0.0,0.0,63,0.00,,OVC036,0.08,VWS V12.08,2013-04-09 05:41:00,
2013-04-08 22:46:00,44.6,33.2,30.15,North,0,0.0,0.0,64,0.00,,OVC036,0.08,VWS V12.08,2013-04-09 05:46:00,
2013-04-08 22:51:00,44.2,32.8,30.15,North,0,0.0,0.0,64,0.00,,OVC036,0.08,VWS V12.08,2013-04-09 05:51:00,
2013-04-08 22:56:00,44.1,32.7,30.15,North,0,0.0,0.0,64,0.00,,OVC036,0.08,VWS V12.08,2013-04-09 05:56:00,
2013-04-08 23:01:00,44.1,33.1,30.15,North,0,0.0,0.0,65,0.00,,OVC036,0.08,VWS V12.08,2013-04-09 06:01:00,
2013-04-08 23:07:00,43.9,32.9,30.15,North,0,0.0,0.0,65,0.00,,OVC036,0.08,VWS V12.08,2013-04-09 06:07:00,
2013-04-08 23:12:00,43.7,32.7,30.15,North,0,0.0,0.0,65,0.00,,OVC036,0.08,VWS V12.08,2013-04-09 06:12:00,
2013-04-08 23:17:00,43.5,32.5,30.15,North,0,0.0,0.0,65,0.00,,OVC036,0.08,VWS V12.08,2013-04-09 06:17:00,
2013-04-08 23:22:00,43.3,32.4,30.15,North,0,0.0,0.0,65,0.00,,OVC036,0.08,VWS V12.08,2013-04-09 06:22:00,
2013-04-08 23:27:00,43.3,32.8,30.15,North,0,0.0,0.0,66,0.00,,OVC036,0.08,VWS V12.08,2013-04-09 06:27:00,
2013-04-08 23:32:00,43.2,33.0,30.15,North,0,0.0,0.0,67,0.00,,OVC036,0.08,VWS V12.08,2013-04-09 06:32:00,
2013-04-08 23:37:00,43.0,32.8,30.15,North,0,0.0,0.0,67,0.00,,OVC036,0.08,VWS V12.08,2013-04-09 06:37:00,
2013-04-08 23:42:00,42.8,32.6,30.15,North,0,0.0,0.0,67,0.00,,OVC036,0.08,VWS V12.08,2013-04-09 06:42:00,
2013-04-08 23:47:00,42.8,33.0,30.15,North,0,0.0,0.0,68,0.00,,OVC036,0.08,VWS V12.08,2013-04-09 06:47:00,
2013-04-08 23:52:00,42.8,33.0,30.15,North,0,0.0,0.0,68,0.00,,OVC036,0.08,VWS V12.08,2013-04-09 06:52:00,
2013-04-08 23:57:00,42.6,32.8,30.15,North,0,0.0,0.0,68,0.00,,OVC036,0.00,VWS V12.08,2013-04-09 06:57:00,